Time;durP1;ratioP1;P1;durP2;ratioP2;P2;SDS_P1;SDS_P2;PMS_P1;PMS_P2;Temp;Humidity;BMP_temperature;BMP_pressure;BME280_temperature;BME280_humidity;BME280_pressure;Samples;Min_cycle;Max_cycle;Signal;HPM_P1;HPM_P2
2022/04/23 00:00:28;;;;;;;3.95;1.63;;;;;;;9.51;44.76;100882.59;5067322;28;20035;-69
2022/04/23 00:02:53;;;;;;;3.20;1.63;;;;;;;9.55;44.03;100880.03;5066948;28;20032;-70
2022/04/23 00:05:19;;;;;;;4.88;1.50;;;;;;;9.77;42.63;100894.78;5067026;28;20037;-69
2022/04/23 00:07:44;;;;;;;3.30;1.45;;;;;;;9.72;42.84;100888.72;5066724;28;20028;-70
2022/04/23 00:10:09;;;;;;;2.22;1.48;;;;;;;9.80;42.75;100900.00;5066840;28;20039;-69
2022/04/23 00:12:35;;;;;;;4.13;1.55;;;;;;;9.73;42.82;100891.31;5066858;28;20013;-70
2022/04/23 00:15:00;;;;;;;1.50;1.20;;;;;;;9.78;42.71;100896.50;5066937;28;20009;-68
2022/04/23 00:17:26;;;;;;;1.30;1.00;;;;;;;9.73;42.60;100896.50;5066949;28;20100;-69
2022/04/23 00:19:53;;;;;;;1.95;1.20;;;;;;;9.67;42.41;100894.78;5066679;28;20013;-69
2022/04/23 00:22:19;;;;;;;2.72;1.30;;;;;;;9.59;42.64;100887.81;5066922;28;20013;-69
2022/04/23 00:24:44;;;;;;;2.30;1.50;;;;;;;9.57;42.46;100892.16;5066956;28;20024;-70
2022/04/23 00:27:10;;;;;;;2.47;1.35;;;;;;;9.47;42.73;100891.25;5066665;28;20082;-71
2022/04/23 00:29:36;;;;;;;2.50;1.50;;;;;;;9.39;43.26;100889.47;5048513;28;20480;-70
2022/04/23 00:32:05;;;;;;;3.58;1.40;;;;;;;9.37;43.81;100898.09;5066527;28;20485;-71
2022/04/23 00:34:31;;;;;;;4.63;1.42;;;;;;;9.22;44.37;100891.13;5048955;28;20045;-70
2022/04/23 00:36:56;;;;;;;4.20;1.45;;;;;;;9.09;44.67;100892.78;5066364;28;20059;-69
2022/04/23 00:39:21;;;;;;;4.00;1.38;;;;;;;8.99;45.39;100891.88;5066250;28;20035;-71
2022/04/23 00:41:47;;;;;;;2.42;1.75;;;;;;;8.85;45.71;100890.03;5066358;28;20020;-69
2022/04/23 00:44:15;;;;;;;2.92;1.60;;;;;;;8.76;46.13;100892.56;5066068;28;20024;-69
2022/04/23 00:46:42;;;;;;;3.70;1.63;;;;;;;8.62;46.48;100893.34;5066284;28;20037;-69
2022/04/23 00:49:07;;;;;;;3.13;1.65;;;;;;;8.60;46.92;100894.19;5066157;28;20029;-69
2022/04/23 00:51:33;;;;;;;3.78;1.40;;;;;;;8.48;47.06;100894.94;5066027;28;20028;-69
2022/04/23 00:54:04;;;;;;;4.03;1.88;;;;;;;8.45;47.30;100897.50;5066275;28;20056;-69
2022/04/23 00:56:31;;;;;;;6.20;2.03;;;;;;;8.43;47.47;100900.06;5048117;28;20021;-68
2022/04/23 00:58:56;;;;;;;2.97;1.70;;;;;;;8.34;47.65;100895.66;5065797;28;20047;-71
2022/04/23 01:01:23;;;;;;;2.10;1.45;;;;;;;8.28;47.78;100890.44;5065908;28;20081;-70
2022/04/23 01:03:50;;;;;;;2.70;1.63;;;;;;;8.18;47.99;100879.13;5065126;28;20308;-70
2022/04/23 01:06:16;;;;;;;2.72;1.77;;;;;;;8.20;48.11;100895.56;5065884;28;20085;-69
2022/04/23 01:08:41;;;;;;;2.83;1.70;;;;;;;8.13;48.36;100886.84;5065502;28;20372;-71
2022/04/23 01:11:07;;;;;;;1.55;1.33;;;;;;;8.11;48.15;100901.50;5065809;28;20418;-70
2022/04/23 01:13:33;;;;;;;3.38;2.30;;;;;;;8.07;48.38;100891.97;5065442;28;20084;-69
2022/04/23 01:16:02;;;;;;;1.90;1.52;;;;;;;8.04;48.50;100892.81;5065347;28;20024;-69
2022/04/23 01:18:28;;;;;;;2.60;1.70;;;;;;;8.02;48.78;100894.50;5047303;28;20052;-69
2022/04/23 01:20:55;;;;;;;1.88;1.35;;;;;;;8.01;48.81;100900.53;5065689;28;20040;-69
2022/04/23 01:23:20;;;;;;;3.22;1.90;;;;;;;7.97;48.89;100905.69;5065422;28;20473;-69
2022/04/23 01:25:46;;;;;;;3.95;1.67;;;;;;;7.94;49.10;100907.38;5065470;28;20044;-69
2022/04/23 01:28:13;;;;;;;3.78;1.80;;;;;;;7.87;49.00;100900.41;5065431;28;20055;-70
2022/04/23 01:30:38;;;;;;;2.42;1.70;;;;;;;7.82;49.22;100904.66;5047734;28;20044;-69
2022/04/23 01:33:03;;;;;;;2.65;1.27;;;;;;;7.79;49.39;100902.91;5065000;28;20052;-69
2022/04/23 01:35:31;;;;;;;2.75;1.73;;;;;;;7.79;49.82;100899.44;5065286;28;20041;-69
2022/04/23 01:37:56;;;;;;;2.55;2.03;;;;;;;7.73;49.94;100910.56;5065106;28;20029;-68
2022/04/23 01:40:22;;;;;;;2.90;1.80;;;;;;;7.68;50.24;100900.19;5065039;28;20039;-68
2022/04/23 01:42:47;;;;;;;3.20;1.80;;;;;;;7.61;50.52;100907.84;5065123;28;20021;-71
2022/04/23 01:45:12;;;;;;;3.15;1.80;;;;;;;7.52;50.69;100903.44;5065310;28;20276;-70
2022/04/23 01:47:38;;;;;;;1.15;1.05;;;;;;;7.49;50.83;100916.34;5047073;28;20052;-70
2022/04/23 01:50:04;;;;;;;2.22;1.40;;;;;;;7.45;51.37;100920.59;5065096;28;20539;-69
2022/04/23 01:52:29;;;;;;;4.75;1.70;;;;;;;7.43;51.69;100917.09;5064696;28;20059;-70
2022/04/23 01:54:55;;;;;;;4.35;2.20;;;;;;;7.37;51.69;100919.59;5064730;28;20017;-69
2022/04/23 01:57:20;;;;;;;3.00;2.28;;;;;;;7.31;51.97;100915.25;5064755;28;20055;-70
2022/04/23 01:59:45;;;;;;;4.18;1.63;;;;;;;7.28;51.88;100910.03;5064888;28;20021;-70
2022/04/23 02:02:11;;;;;;;4.25;1.80;;;;;;;7.26;52.54;100909.13;5064711;28;20074;-70
2022/04/23 02:04:36;;;;;;;2.75;1.65;;;;;;;7.18;52.43;100909.91;5064772;28;20021;-68
2022/04/23 02:07:01;;;;;;;4.38;1.80;;;;;;;7.12;52.97;100904.66;5064640;28;20040;-69
2022/04/23 02:09:27;;;;;;;3.53;2.10;;;;;;;7.05;53.01;100905.41;5064551;28;20036;-69
2022/04/23 02:11:52;;;;;;;4.22;2.05;;;;;;;7.05;53.23;100902.84;5064671;28;20479;-70
2022/04/23 02:14:18;;;;;;;3.08;1.88;;;;;;;6.99;53.41;100898.47;5063860;28;20023;-70
2022/04/23 02:16:43;;;;;;;5.53;2.10;;;;;;;6.94;53.55;100906.13;5063767;28;20032;-70
2022/04/23 02:19:08;;;;;;;5.22;1.90;;;;;;;6.91;53.88;100906.09;5064122;28;20039;-70
2022/04/23 02:21:34;;;;;;;3.28;1.70;;;;;;;6.88;54.01;100913.78;5064298;28;20088;-69
2022/04/23 02:24:01;;;;;;;3.30;1.70;;;;;;;6.85;53.98;100907.72;5064399;28;20053;-70
2022/04/23 02:26:26;;;;;;;2.30;1.67;;;;;;;6.74;53.86;100900.66;5064358;28;20025;-70
2022/04/23 02:28:52;;;;;;;4.90;1.77;;;;;;;6.77;54.04;100908.44;5064125;28;20060;-69
2022/04/23 02:31:18;;;;;;;2.83;1.95;;;;;;;6.76;54.57;100908.41;5064183;28;20028;-69
2022/04/23 02:33:44;;;;;;;10.55;2.33;;;;;;;6.72;54.73;100911.81;5064054;28;20037;-69
2022/04/23 02:36:11;;;;;;;7.93;2.30;;;;;;;6.65;54.96;100905.69;5064206;28;20051;-69
2022/04/23 02:38:39;;;;;;;4.32;2.13;;;;;;;6.61;54.94;100912.53;5063665;28;20055;-69
2022/04/23 02:41:06;;;;;;;5.57;2.03;;;;;;;6.61;55.68;100898.75;5064245;28;20313;-70
2022/04/23 02:43:31;;;;;;;3.10;2.30;;;;;;;6.60;55.63;100908.19;5063812;28;20032;-70
2022/04/23 02:45:58;;;;;;;2.80;1.80;;;;;;;6.54;55.96;100898.66;5063854;28;20025;-69
2022/04/23 02:48:23;;;;;;;5.13;2.10;;;;;;;6.52;56.55;100904.59;5064008;28;20201;-70
2022/04/23 02:50:48;;;;;;;3.42;2.10;;;;;;;6.51;56.98;100905.47;5063834;28;20093;-70
2022/04/23 02:53:14;;;;;;;6.03;2.60;;;;;;;6.49;56.98;100896.81;5063448;28;20021;-69
2022/04/23 02:55:40;;;;;;;3.30;1.80;;;;;;;6.47;56.96;100903.69;5063646;28;20176;-69
2022/04/23 02:58:10;;;;;;;2.85;1.80;;;;;;;6.44;57.64;100907.06;5063618;28;20027;-68
2022/04/23 03:00:41;;;;;;;5.68;3.40;;;;;;;6.44;58.18;100910.53;5063528;28;20036;-70
2022/04/23 03:03:07;;;;;;;5.00;2.20;;;;;;;6.38;58.67;100909.53;5063546;28;20074;-70
2022/04/23 03:05:33;;;;;;;3.58;2.25;;;;;;;6.35;58.50;100897.47;5063745;28;20108;-70
2022/04/23 03:08:02;;;;;;;3.13;2.08;;;;;;;6.32;58.40;100895.72;5063466;28;20029;-71
2022/04/23 03:10:29;;;;;;;4.38;2.20;;;;;;;6.29;59.03;100902.53;5063367;28;20032;-71
2022/04/23 03:12:57;;;;;;;4.15;2.20;;;;;;;6.26;58.84;100905.91;5063369;28;20029;-74
2022/04/23 03:15:25;;;;;;;3.25;1.90;;;;;;;6.18;58.92;100886.88;5063591;28;20009;-71
2022/04/23 03:18:03;;;;;;;4.72;2.03;;;;;;;6.27;59.18;100905.06;5063321;28;20381;-70
2022/04/23 03:20:28;;;;;;;4.43;1.70;;;;;;;6.24;59.37;100911.88;5063585;28;20487;-70
2022/04/23 03:22:54;;;;;;;3.10;1.90;;;;;;;6.24;59.39;100904.16;5063025;28;20033;-71
2022/04/23 03:25:19;;;;;;;3.70;1.67;;;;;;;6.17;59.61;100904.03;5045108;28;20037;-71
2022/04/23 03:27:44;;;;;;;3.80;1.83;;;;;;;6.14;59.41;100895.38;5062910;28;20031;-71
2022/04/23 03:30:10;;;;;;;3.55;1.35;;;;;;;6.18;59.76;100903.19;5063103;28;20540;-71
2022/04/23 03:32:35;;;;;;;1.75;1.13;;;;;;;6.16;59.88;100906.59;5063140;28;20052;-78
2022/04/23 03:35:01;;;;;;;2.88;1.75;;;;;;;6.07;59.80;100897.84;5045596;28;20037;-71
2022/04/23 03:37:26;;;;;;;1.88;1.40;;;;;;;6.07;59.81;100897.00;5063128;28;20029;-71
2022/04/23 03:39:51;;;;;;;3.97;1.67;;;;;;;6.09;60.13;100900.44;5063144;28;20393;-71
2022/04/23 03:42:17;;;;;;;3.28;1.45;;;;;;;6.02;60.08;100896.00;5045354;28;20084;-70
2022/04/23 03:44:42;;;;;;;1.77;1.27;;;;;;;6.03;59.86;100903.75;5062919;28;20037;-71
2022/04/23 03:47:08;;;;;;;3.03;1.75;;;;;;;6.02;59.87;100890.84;5063264;28;20021;-71
2022/04/23 03:49:33;;;;;;;2.67;1.70;;;;;;;5.98;60.01;100896.78;5063409;28;20035;-71
2022/04/23 03:51:59;;;;;;;3.58;1.42;;;;;;;5.94;60.15;100894.13;5063485;28;20021;-72
2022/04/23 03:54:25;;;;;;;2.55;1.40;;;;;;;5.97;59.76;100893.34;5066777;28;20045;-70
2022/04/23 03:56:51;;;;;;;3.20;1.67;;;;;;;5.98;59.62;100889.03;5070378;28;20021;-72
2022/04/23 03:59:20;;;;;;;5.90;1.65;;;;;;;5.94;59.67;100888.13;5063364;28;20025;-72
2022/04/23 04:01:47;;;;;;;2.03;1.23;;;;;;;5.94;59.43;100888.97;5063583;28;20025;-72
2022/04/23 04:04:14;;;;;;;3.35;1.50;;;;;;;5.92;59.40;100893.25;5063099;28;20024;-72
2022/04/23 04:06:40;;;;;;;2.90;1.50;;;;;;;5.87;59.04;100881.13;5062974;28;20067;-72
2022/04/23 04:09:05;;;;;;;2.15;1.02;;;;;;;5.92;58.88;100892.38;5062940;28;20025;-73
2022/04/23 04:12:01;;;;;;;3.13;1.75;;;;;;;5.90;58.68;100889.78;5045052;28;20021;-71
2022/04/23 04:14:16;;;;;;;2.47;1.30;;;;;;;5.93;58.37;100888.94;5062890;28;20554;-71
2022/04/23 04:16:42;;;;;;;1.60;1.20;;;;;;;5.85;57.96;100883.66;5063025;28;20032;-71
2022/04/23 04:19:07;;;;;;;2.15;1.20;;;;;;;5.93;57.61;100892.41;5063063;28;20024;-74
2022/04/23 04:21:33;;;;;;;2.15;1.00;;;;;;;5.90;57.56;100892.34;5062762;28;20017;-70
2022/04/23 04:23:59;;;;;;;1.85;1.20;;;;;;;5.89;57.40;100892.31;5062701;28;20470;-72
2022/04/23 04:26:24;;;;;;;3.00;1.60;;;;;;;5.89;57.36;100888.06;5062863;28;20032;-72
2022/04/23 04:28:50;;;;;;;2.30;1.00;;;;;;;5.98;56.76;100894.19;5062584;28;20013;-72
2022/04/23 04:33:59;;;;;;;2.13;1.20;;;;;;;6.33;56.13;100901.72;5062729;28;20047;-71
2022/04/23 04:36:24;;;;;;;1.58;1.10;;;;;;;6.61;55.49;100899.63;5062604;28;20111;-72
2022/04/23 04:38:50;;;;;;;2.35;1.05;;;;;;;6.87;55.08;100908.63;5063862;28;20036;-71
2022/04/23 04:41:15;;;;;;;1.58;1.00;;;;;;;7.26;54.59;100899.69;5048313;28;20203;-75
2022/04/23 04:43:41;;;;;;;1.15;0.82;;;;;;;7.57;52.58;100902.66;5066077;28;20032;-71
2022/04/23 04:46:08;;;;;;;1.30;0.80;;;;;;;7.91;52.21;100896.13;5066592;28;20333;-72
2022/04/23 04:48:33;;;;;;;1.52;0.90;;;;;;;8.32;51.35;100894.81;5066399;28;20090;-73
2022/04/23 04:50:59;;;;;;;1.40;0.98;;;;;;;8.51;50.22;100887.19;5048142;28;20484;-72
2022/04/23 04:53:24;;;;;;;1.00;0.70;;;;;;;8.73;48.80;100889.97;5066019;28;20035;-72
2022/04/23 04:55:49;;;;;;;1.60;0.70;;;;;;;8.93;48.23;100896.13;5066440;28;20067;-73
2022/04/23 04:58:14;;;;;;;2.05;0.80;;;;;;;9.05;47.94;100899.66;5066182;28;20043;-74
2022/04/23 05:00:40;;;;;;;2.70;0.85;;;;;;;9.34;47.25;100898.97;5065884;28;20024;-73
2022/04/23 05:03:05;;;;;;;2.15;0.90;;;;;;;9.74;47.04;100899.97;5066061;28;20530;-72
2022/04/23 05:05:30;;;;;;;1.60;0.70;;;;;;;10.04;45.80;100899.19;5065792;28;20057;-74
2022/04/23 05:07:56;;;;;;;1.73;1.13;;;;;;;10.19;45.22;100888.81;5065751;28;20037;-72
2022/04/23 05:10:21;;;;;;;1.70;0.88;;;;;;;10.48;44.02;100888.00;5047865;28;20048;-72
2022/04/23 05:12:46;;;;;;;1.67;0.70;;;;;;;10.59;43.15;100893.19;5048125;28;20067;-71
2022/04/23 05:15:12;;;;;;;2.20;0.55;;;;;;;10.57;42.34;100889.72;5065798;28;20078;-73
2022/04/23 05:17:39;;;;;;;1.80;0.60;;;;;;;10.57;42.46;100881.94;5065703;28;20037;-72
2022/04/23 05:20:05;;;;;;;2.33;0.80;;;;;;;11.01;43.49;100882.72;5064168;28;20024;-72
2022/04/23 05:22:31;;;;;;;0.88;0.60;;;;;;;11.84;42.22;100879.75;5065282;28;20036;-73
2022/04/23 05:24:57;;;;;;;0.77;0.50;;;;;;;12.11;40.84;100868.34;5065480;28;20033;-75
2022/04/23 05:27:25;;;;;;;0.80;0.60;;;;;;;11.94;39.19;100876.25;5065423;28;20028;-73
2022/04/23 05:29:51;;;;;;;0.98;0.47;;;;;;;11.64;38.82;100879.03;5065459;28;20029;-72
2022/04/23 05:32:16;;;;;;;1.05;0.50;;;;;;;11.35;39.25;100882.63;5065399;28;20020;-74
2022/04/23 05:34:43;;;;;;;0.90;0.70;;;;;;;11.13;39.65;100882.69;5065198;28;20020;-72
2022/04/23 05:37:08;;;;;;;6.63;0.65;;;;;;;11.09;39.43;100873.19;5065170;28;20084;-73
2022/04/23 05:39:34;;;;;;;3.65;0.60;;;;;;;10.94;39.43;100868.03;5065274;28;20024;-72
2022/04/23 05:41:59;;;;;;;0.32;0.30;;;;;;;11.02;39.76;100889.66;5065156;28;20039;-72
2022/04/23 05:44:24;;;;;;;0.88;0.50;;;;;;;11.18;40.05;100867.09;5065335;28;20032;-72
2022/04/23 05:46:50;;;;;;;0.90;0.68;;;;;;;11.23;39.63;100867.91;5065188;28;20032;-71
2022/04/23 05:49:15;;;;;;;3.33;0.50;;;;;;;11.39;38.66;100878.25;5064706;28;20052;-74
2022/04/23 05:51:40;;;;;;;1.98;0.63;;;;;;;11.14;38.54;100868.84;5046769;28;20025;-73
2022/04/23 05:54:05;;;;;;;1.50;0.50;;;;;;;11.03;38.46;100884.47;5046884;28;20021;-73
2022/04/23 05:56:31;;;;;;;1.02;0.70;;;;;;;11.12;39.36;100880.97;5064969;28;20123;-72
2022/04/23 05:58:56;;;;;;;0.75;0.50;;;;;;;11.15;39.08;100886.16;5064498;28;20362;-69
2022/04/23 06:01:22;;;;;;;0.50;0.43;;;;;;;11.08;39.21;100878.38;5064709;28;20035;-72
2022/04/23 06:03:47;;;;;;;1.52;0.68;;;;;;;11.10;38.63;100882.69;5064759;28;20060;-69
2022/04/23 06:06:12;;;;;;;0.80;0.50;;;;;;;11.08;39.13;100870.56;5046973;28;20013;-68
2022/04/23 06:08:42;;;;;;;1.50;0.60;;;;;;;11.11;38.49;100873.16;5064563;28;20021;-70
2022/04/23 06:11:07;;;;;;;0.60;0.50;;;;;;;10.98;38.59;100885.31;5063626;28;20021;-73
2022/04/23 06:13:32;;;;;;;1.05;0.52;;;;;;;10.88;39.14;100876.69;5064811;28;20082;-71
2022/04/23 06:15:58;;;;;;;3.53;0.52;;;;;;;11.21;39.38;100885.28;5064571;28;20509;-70
2022/04/23 06:18:23;;;;;;;0.73;0.50;;;;;;;11.59;38.62;100875.59;5064382;28;20021;-71
2022/04/23 06:20:49;;;;;;;0.75;0.60;;;;;;;11.63;38.24;100874.69;5064474;28;20536;-70
2022/04/23 06:23:14;;;;;;;3.00;0.70;;;;;;;11.68;38.08;100868.59;5064502;28;20033;-73
2022/04/23 06:25:39;;;;;;;1.67;0.65;;;;;;;11.81;38.38;100872.84;5064373;28;20337;-72
2022/04/23 06:28:05;;;;;;;1.42;0.52;;;;;;;12.03;38.31;100875.31;5046317;28;20021;-72
2022/04/23 06:30:30;;;;;;;0.68;0.40;;;;;;;12.18;37.72;100876.97;5064103;28;20179;-72
2022/04/23 06:32:56;;;;;;;1.75;0.63;;;;;;;12.34;37.02;100854.28;5064006;28;20041;-72
2022/04/23 06:35:22;;;;;;;6.53;1.50;;;;;;;12.34;37.12;100869.03;5064244;28;20021;-72
2022/04/23 06:37:47;;;;;;;0.60;0.50;;;;;;;12.35;37.05;100878.56;5045798;28;20042;-70
2022/04/23 06:40:13;;;;;;;1.83;0.73;;;;;;;12.37;37.43;100877.69;5064042;28;20529;-72
2022/04/23 06:42:39;;;;;;;2.90;0.70;;;;;;;12.60;37.42;100863.59;5064135;28;20031;-71
2022/04/23 06:45:06;;;;;;;0.90;0.45;;;;;;;12.72;36.44;100859.13;5063933;28;20025;-71
2022/04/23 06:47:31;;;;;;;0.40;0.40;;;;;;;12.33;37.17;100859.50;5063935;28;20024;-71
2022/04/23 06:49:58;;;;;;;4.22;0.43;;;;;;;12.47;36.84;100896.72;5063623;28;20039;-68
2022/04/23 06:52:24;;;;;;;5.35;0.80;;;;;;;12.07;37.20;100860.53;5063680;28;20017;-70
2022/04/23 06:54:54;;;;;;;1.45;0.40;;;;;;;11.84;37.76;100862.44;5062643;28;20083;-72
2022/04/23 06:57:24;;;;;;;1.80;0.60;;;;;;;11.47;38.31;100840.09;5045854;28;20028;-71
2022/04/23 06:59:50;;;;;;;1.40;0.50;;;;;;;11.36;38.98;100881.75;5063829;28;20021;-70
2022/04/23 07:02:17;;;;;;;0.77;0.57;;;;;;;11.20;39.25;100854.94;5044814;28;20032;-76
2022/04/23 07:04:43;;;;;;;0.90;0.50;;;;;;;11.15;39.63;100844.56;5063166;28;20028;-71
2022/04/23 07:07:10;;;;;;;1.77;0.60;;;;;;;11.22;40.03;100839.34;5062961;28;20468;-73
2022/04/23 07:09:35;;;;;;;1.30;0.60;;;;;;;11.40;40.15;100834.09;5062173;28;20112;-73
2022/04/23 07:12:00;;;;;;;0.80;0.55;;;;;;;11.82;39.55;100840.75;5064073;28;20493;-73
2022/04/23 07:14:26;;;;;;;1.80;0.60;;;;;;;11.94;39.00;100838.94;5045688;28;20017;-74
2022/04/23 07:16:51;;;;;;;1.25;0.70;;;;;;;11.95;38.80;100827.69;5045375;28;20021;-73
2022/04/23 07:19:16;;;;;;;0.90;0.57;;;;;;;12.03;38.49;100828.47;5063622;28;20048;-74
2022/04/23 07:21:42;;;;;;;1.05;0.70;;;;;;;11.87;38.74;100814.69;5063700;28;20044;-72
2022/04/23 07:24:08;;;;;;;0.88;0.50;;;;;;;11.82;39.10;100832.94;5063249;28;20400;-74
2022/04/23 07:26:35;;;;;;;2.58;0.73;;;;;;;11.81;38.88;100806.94;5063394;28;20017;-73
2022/04/23 07:29:06;;;;;;;1.75;0.60;;;;;;;11.90;38.69;100810.34;5061964;28;20029;-74
2022/04/23 07:31:32;;;;;;;0.80;0.50;;;;;;;11.99;38.48;100818.97;5063644;28;20029;-75
2022/04/23 07:39:26;;;;;;;1.27;0.70;;;;;;;12.33;38.31;100813.50;5063562;28;20059;-74
2022/04/23 07:41:54;;;;;;;1.10;0.63;;;;;;;12.76;37.96;100811.34;5063430;28;20025;-72
2022/04/23 07:44:21;;;;;;;2.28;0.68;;;;;;;12.91;37.62;100812.91;5045044;28;20047;-73
2022/04/23 07:46:46;;;;;;;0.80;0.50;;;;;;;12.95;37.37;100818.94;5045047;28;20036;-72
2022/04/23 07:49:11;;;;;;;0.65;0.50;;;;;;;12.92;37.17;100811.16;5062910;28;20029;-74
2022/04/23 07:51:37;;;;;;;0.85;0.50;;;;;;;12.83;37.34;100805.19;5063171;28;20025;-73
2022/04/23 07:54:02;;;;;;;1.42;0.60;;;;;;;13.00;37.17;100807.59;5062989;28;20021;-73
2022/04/23 07:56:27;;;;;;;1.10;0.70;;;;;;;13.14;37.14;100820.47;5063294;28;20028;-73
2022/04/23 07:58:53;;;;;;;1.73;0.70;;;;;;;12.96;37.10;100829.34;5063365;28;20107;-72
2022/04/23 08:01:18;;;;;;;4.38;0.82;;;;;;;12.92;37.68;100800.75;5062949;28;20024;-73
2022/04/23 08:03:43;;;;;;;1.45;0.70;;;;;;;13.18;37.78;100789.16;5062884;28;20039;-74
2022/04/23 08:06:10;;;;;;;2.13;0.52;;;;;;;13.44;37.01;100780.06;5061481;28;20028;-73
2022/04/23 08:08:36;;;;;;;0.90;0.45;;;;;;;13.35;36.78;100788.91;5062488;28;20492;-72
2022/04/23 08:11:02;;;;;;;1.52;1.00;;;;;;;13.44;36.64;100788.78;5062859;28;20369;-72
2022/04/23 08:13:28;;;;;;;1.75;0.50;;;;;;;13.45;36.77;100787.88;5063956;28;20472;-74
2022/04/23 08:15:53;;;;;;;0.50;0.50;;;;;;;13.54;36.51;100784.31;5066678;28;20441;-70
2022/04/23 08:18:19;;;;;;;0.80;0.60;;;;;;;13.31;37.12;100774.16;5066598;28;20027;-70
2022/04/23 08:20:45;;;;;;;1.40;0.80;;;;;;;13.51;36.74;100777.38;5066699;28;20082;-70
2022/04/23 08:23:10;;;;;;;1.42;0.60;;;;;;;13.62;36.96;100773.78;5066517;28;20389;-70
2022/04/23 08:25:35;;;;;;;1.15;0.60;;;;;;;13.83;36.28;100793.47;5048527;28;20487;-69
2022/04/23 08:30:46;;;;;;;1.52;0.93;;;;;;;13.82;36.31;100780.41;5066925;28;20027;-69
2022/04/23 08:33:12;;;;;;;2.45;0.60;;;;;;;13.73;36.41;100784.03;5066412;28;20049;-69
2022/04/23 08:35:38;;;;;;;3.83;1.52;;;;;;;13.88;36.71;100777.72;5066495;28;20050;-71
2022/04/23 08:38:05;;;;;;;0.82;0.50;;;;;;;14.45;35.96;100786.31;5066493;28;20033;-71
2022/04/23 08:40:35;;;;;;;0.90;0.45;;;;;;;14.62;34.81;100777.28;5066582;28;20029;-69
2022/04/23 08:43:01;;;;;;;2.22;0.80;;;;;;;14.47;34.97;100788.91;5066739;28;20432;-70
2022/04/23 08:45:26;;;;;;;0.57;0.40;;;;;;;14.36;35.06;100763.81;5066519;28;20021;-70
2022/04/23 08:47:52;;;;;;;1.65;0.90;;;;;;;14.57;34.85;100774.75;5066380;28;20025;-70
2022/04/23 08:50:21;;;;;;;1.35;0.63;;;;;;;14.56;34.28;100767.81;5066326;28;20056;-70
2022/04/23 08:52:52;;;;;;;2.10;0.90;;;;;;;14.44;34.52;100770.69;5047798;28;20104;-70
2022/04/23 08:55:19;;;;;;;1.13;0.60;;;;;;;14.47;34.26;100765.38;5065600;28;20028;-70
2022/04/23 08:57:44;;;;;;;2.42;0.75;;;;;;;14.52;34.28;100766.13;5065646;28;20040;-67
2022/04/23 09:00:12;;;;;;;0.95;0.70;;;;;;;14.65;34.08;100761.53;5065678;28;20460;-69
2022/04/23 09:02:37;;;;;;;1.35;0.75;;;;;;;14.81;33.70;100743.84;5065664;28;20025;-70
2022/04/23 09:05:03;;;;;;;2.50;0.60;;;;;;;14.83;33.76;100747.28;5065360;28;20040;-69
2022/04/23 09:07:32;;;;;;;3.33;0.85;;;;;;;15.21;34.19;100746.47;5065968;28;20028;-68
2022/04/23 09:09:58;;;;;;;1.55;0.52;;;;;;;15.65;33.37;100738.50;5065552;28;20532;-69
2022/04/23 09:12:26;;;;;;;3.42;0.70;;;;;;;16.09;32.27;100734.81;5065574;28;20025;-69
2022/04/23 09:14:52;;;;;;;2.03;0.50;;;;;;;16.46;31.15;100725.09;5065490;28;20024;-68
2022/04/23 09:25:43;;;;;;;0.98;0.75;;;;;;;15.86;32.20;100734.47;5064499;28;20055;-69
2022/04/23 09:28:28;;;;;;;1.23;0.70;;;;;;;15.82;31.79;100718.88;5065081;28;20021;-68
2022/04/23 09:30:59;;;;;;;1.73;0.65;;;;;;;16.07;31.29;100720.91;5046427;28;20053;-68
2022/04/23 09:33:41;;;;;;;2.13;0.70;;;;;;;16.28;31.41;100721.25;5064878;28;20174;-68
2022/04/23 09:36:06;;;;;;;;;;;;;;;16.23;31.14;100737.06;5065309;28;20036;-70
2022/04/23 09:38:32;;;;;;;1.73;0.70;;;;;;;16.13;31.49;100738.22;5064751;28;19995;-68
2022/04/23 09:41:17;;;;;;;0.75;0.50;;;;;;;16.14;31.23;100719.84;5064774;28;20029;-67
2022/04/23 09:43:48;;;;;;;0.93;0.60;;;;;;;15.99;31.64;100718.47;5065011;28;20025;-67
2022/04/23 09:46:14;;;;;;;1.35;0.70;;;;;;;15.73;32.13;100709.53;5064890;28;20088;-69
2022/04/23 09:48:43;;;;;;;2.42;0.80;;;;;;;15.80;31.94;100725.94;5065186;28;20028;-70
2022/04/23 09:51:21;;;;;;;1.10;0.60;;;;;;;15.82;32.07;100717.13;5064766;28;20025;-68
2022/04/23 09:53:48;;;;;;;1.27;0.63;;;;;;;16.02;31.28;100736.75;5064780;28;20235;-74
2022/04/23 09:56:14;;;;;;;0.90;0.63;;;;;;;15.86;31.66;100715.31;5064915;28;20028;-69
2022/04/23 09:58:39;;;;;;;1.67;0.65;;;;;;;15.97;32.06;100707.16;5064854;28;20021;-68
2022/04/23 10:01:07;;;;;;;3.78;0.70;;;;;;;16.42;31.55;100708.59;5064698;28;20028;-69
2022/04/23 10:03:38;;;;;;;1.63;0.68;;;;;;;17.03;30.89;100704.22;5064737;28;20013;-69
2022/04/23 10:06:08;;;;;;;2.92;0.55;;;;;;;17.52;29.80;100700.97;5064673;28;20487;-70
2022/04/23 10:08:34;;;;;;;0.65;0.50;;;;;;;17.52;29.75;100703.59;5064357;28;20025;-69
2022/04/23 10:11:12;;;;;;;3.80;0.77;;;;;;;17.49;29.92;100690.59;5062822;28;20116;-69
2022/04/23 10:13:40;;;;;;;3.42;0.70;;;;;;;17.62;29.36;100692.81;5064668;28;20029;-69
2022/04/23 10:16:07;;;;;;;0.82;0.60;;;;;;;17.19;29.56;100690.66;5064456;28;20021;-70
2022/04/23 10:18:38;;;;;;;1.20;0.60;;;;;;;17.12;30.19;100681.25;5064445;28;20035;-69
2022/04/23 10:21:08;;;;;;;3.73;1.60;;;;;;;17.41;29.92;100676.84;5064530;28;20048;-67
2022/04/23 10:23:46;;;;;;;3.50;0.60;;;;;;;17.78;29.57;100680.00;5064192;28;20262;-68
2022/04/23 10:26:49;;;;;;;1.50;0.80;;;;;;;17.86;29.01;100688.47;5046421;28;20021;-69
2022/04/23 10:29:20;;;;;;;1.70;0.65;;;;;;;17.33;28.70;100683.19;5064165;28;20441;-68
2022/04/23 10:32:19;;;;;;;1.95;0.55;;;;;;;16.84;29.51;100670.69;5064341;28;20028;-68
2022/04/23 10:34:44;;;;;;;4.18;0.55;;;;;;;17.15;29.29;100666.28;5064449;28;20037;-68
2022/04/23 10:37:14;;;;;;;4.38;0.65;;;;;;;17.32;28.78;100659.63;5063205;28;20036;-68
2022/04/23 10:39:40;;;;;;;7.72;0.70;;;;;;;17.50;28.59;100645.06;5064028;28;20025;-70
2022/04/23 10:42:05;;;;;;;3.08;0.55;;;;;;;17.48;28.01;100669.66;5046267;28;20056;-68
2022/04/23 10:44:31;;;;;;;1.92;1.15;;;;;;;17.33;28.46;100664.81;5066027;28;20031;-68
2022/04/23 10:46:58;;;;;;;0.98;0.60;;;;;;;17.87;28.04;100665.69;5064680;28;20053;-68
2022/04/23 10:49:25;;;;;;;2.28;0.60;;;;;;;17.90;27.31;100676.09;5046069;28;20044;-68
2022/04/23 10:51:59;;;;;;;0.80;0.63;;;;;;;17.33;27.98;100674.47;5064467;28;20021;-69
2022/04/23 10:54:40;;;;;;;0.77;0.45;;;;;;;17.02;28.67;100675.41;5064247;28;20032;-67
2022/04/23 10:57:07;;;;;;;1.98;0.60;;;;;;;16.83;28.63;100697.84;5046061;28;20360;-68
2022/04/23 10:59:46;;;;;;;3.60;0.70;;;;;;;16.51;29.30;100670.81;5045711;28;20032;-68
2022/04/23 11:02:14;;;;;;;0.80;0.60;;;;;;;16.36;29.42;100669.47;5064113;28;20036;-69
2022/04/23 11:13:31;;;;;;;0.70;0.55;;;;;;;18.06;27.64;100658.88;5064030;28;20392;-66
2022/04/23 11:16:19;;;;;;;2.55;0.95;;;;;;;17.94;27.32;100670.66;5063787;28;20017;-66
2022/04/23 11:18:48;;;;;;;2.42;0.70;;;;;;;17.71;27.61;100661.84;5063679;28;20035;-66
2022/04/23 11:21:26;;;;;;;1.20;0.70;;;;;;;17.96;27.87;100658.34;5063809;28;20025;-67
2022/04/23 11:23:57;;;;;;;2.15;0.65;;;;;;;17.62;27.60;100661.28;5064422;28;20021;-68
2022/04/23 11:26:39;;;;;;;2.65;0.70;;;;;;;16.23;29.22;100654.09;5063500;28;20073;-67
2022/04/23 11:29:05;;;;;;;1.30;0.70;;;;;;;15.36;30.46;100657.22;5063458;28;20388;-69
2022/04/23 11:31:31;;;;;;;1.60;0.65;;;;;;;14.75;32.26;100657.69;5063469;28;20024;-66
2022/04/23 11:33:58;;;;;;;1.48;0.90;;;;;;;14.19;33.12;100651.88;5063083;28;20091;-67
2022/04/23 11:36:33;;;;;;;0.95;0.70;;;;;;;13.87;33.75;100654.19;5063524;28;20052;-67
2022/04/23 11:39:09;;;;;;;2.53;0.80;;;;;;;13.86;33.90;100683.81;5063243;28;20029;-70
2022/04/23 11:41:44;;;;;;;1.60;0.70;;;;;;;13.59;34.23;100654.69;5063205;28;20028;-67
2022/04/23 11:47:08;;;;;;;3.10;0.90;;;;;;;13.01;35.64;100641.66;5063314;28;20061;-68
2022/04/23 11:49:36;;;;;;;0.98;0.70;;;;;;;12.93;36.03;100641.78;5063196;28;20203;-68
2022/04/23 11:52:08;;;;;;;4.40;0.93;;;;;;;13.09;35.37;100673.69;5063280;28;20021;-67
2022/04/23 11:54:36;;;;;;;1.65;0.90;;;;;;;12.87;35.72;100649.69;5063397;28;20089;-68
2022/04/23 11:57:03;;;;;;;0.95;0.55;;;;;;;12.73;36.22;100648.09;5061863;28;20116;-68
2022/04/23 11:59:42;;;;;;;5.38;0.88;;;;;;;12.81;36.03;100631.53;5062832;28;20037;-68